EST,Max TemperatureF,Mean TemperatureF,Min TemperatureF,Max Dew PointF,MeanDew PointF,Min DewpointF,Max Humidity, Mean Humidity, Min Humidity, Max Sea Level PressureIn, Mean Sea Level PressureIn, Min Sea Level PressureIn, Max VisibilityMiles, Mean VisibilityMiles, Min VisibilityMiles, Max Wind SpeedMPH, Mean Wind SpeedMPH, Max Gust SpeedMPH,PrecipitationIn, CloudCover, Events, WindDirDegrees
2013-2-1,21,18,16,16,11,6,89,72,60,30.21,29.92,29.69,10,7,1,23,13,26,0.00,7,Snow,297
2013-2-2,19,14,10,13,7,1,81,69,57,30.22,30.12,29.98,10,9,4,14,9,,0.00,6,Snow,207
2013-2-3,24,16,8,19,13,5,93,84,65,30.00,29.85,29.74,10,6,1,16,5,22,0.01,7,Snow,347
2013-2-4,19,16,14,14,10,6,91,74,57,29.97,29.93,29.81,10,8,3,17,8,,0.00,7,Snow,279
2013-2-5,28,22,15,20,15,12,93,79,58,29.97,29.91,29.85,10,8,2,8,1,,0.00,7,Snow,180
2013-2-6,28,18,5,23,14,1,93,71,57,30.41,30.16,29.91,10,8,1,25,8,30,0.00,5,Snow,315
2013-2-7,31,18,5,15,9,1,85,64,47,30.49,30.37,30.19,10,10,10,17,7,28,0.00,6,,127
2013-2-8,32,26,19,30,25,16,100,87,63,30.15,29.91,29.78,10,5,0,24,14,26,1.03,8,Fog-Snow,169
2013-2-9,21,16,10,19,12,7,93,84,73,30.44,30.21,29.90,10,4,1,23,16,34,0.00,8,Snow,332
2013-2-10,35,18,1,13,8,-2,92,69,33,30.47,30.35,30.10,10,10,10,18,5,31,0.00,3,,135
2013-2-11,39,36,32,35,28,14,89,75,46,30.10,29.82,29.64,10,10,7,22,14,29,0.02,8,Rain-Snow,192
2013-2-12,34,32,29,26,23,21,73,69,65,29.99,29.89,29.75,10,10,10,23,14,29,0.00,8,Snow,282
2013-2-13,36,32,25,22,20,19,78,67,51,29.94,29.83,29.72,10,10,10,9,4,,0.00,5,,303
2013-2-14,39,30,21,30,24,17,91,76,47,29.96,29.87,29.81,10,8,6,13,5,,0.00,6,Rain,187
2013-2-15,39,34,27,29,24,18,79,67,45,30.04,29.94,29.83,10,10,7,16,9,21,0.00,7,Snow,269
2013-2-16,26,19,12,20,13,7,84,71,58,30.05,30.00,29.92,10,9,2,15,7,,0.00,6,Snow,334
2013-2-17,17,14,10,10,6,1,84,71,64,30.13,29.94,29.83,10,8,2,28,11,33,0.00,7,Snow,321
2013-2-18,29,20,10,10,7,3,85,60,39,30.30,30.20,30.05,10,9,3,20,13,29,0.00,4,Snow,271
2013-2-19,36,30,24,32,24,11,93,74,44,30.03,29.75,29.61,10,8,1,21,14,26,0.01,6,Rain-Snow,186
2013-2-20,24,20,17,16,11,9,86,68,60,30.05,29.91,29.78,10,8,0,25,17,34,0.00,8,Fog-Snow,287
2013-2-21,18,16,14,15,11,7,92,78,71,30.43,30.18,29.98,10,6,1,22,15,29,0.00,8,Snow,320
2013-2-22,34,26,18,24,19,15,89,74,54,30.42,30.28,30.09,10,10,10,20,6,28,0.00,7,Snow,157
2013-2-23,37,32,28,36,31,23,100,90,69,30.10,29.93,29.84,10,7,0,18,11,26,0.01,8,Fog-Rain,199
2013-2-24,31,30,28,30,24,21,100,81,69,30.05,29.90,29.83,10,7,1,18,7,21,0.00,8,Snow,321
2013-2-25,34,28,23,27,25,20,89,81,65,30.26,30.18,30.04,10,9,7,12,9,,0.00,6,Fog-Rain-Snow,337
2013-2-26,39,31,23,31,25,20,93,76,53,30.26,30.10,29.86,10,9,1,15,8,24,0.33,3,Rain-Snow,116
2013-2-27,36,34,32,34,32,30,100,93,87,29.85,29.65,29.53,10,5,0,12,6,18,1.13,8,Fog-Rain-Snow,102
2013-2-28,36,33,30,34,31,29,100,94,74,29.69,29.60,29.55,10,5,0,12,4,,0.09,8,Fog-Rain-Snow,289